createdAt,value
2018-08-18T00:01:44.682Z,69.02
2018-08-18T00:04:24.643Z,68.90
2018-08-18T00:06:53.133Z,69.78
2018-08-18T00:09:21.658Z,69.90
2018-08-18T00:11:50.076Z,69.89
2018-08-18T00:14:19.792Z,70.76
2018-08-18T00:16:48.239Z,71.21
2018-08-18T00:19:16.683Z,73.36
2018-08-18T00:21:45.171Z,74.68
2018-08-18T00:24:13.694Z,74.27
2018-08-18T00:26:42.219Z,74.08
2018-08-18T00:29:11.502Z,73.76
2018-08-18T00:31:41.548Z,73.95
2018-08-18T00:34:10.055Z,73.94
2018-08-18T00:36:38.687Z,74.22
2018-08-18T00:39:11.683Z,74.15
2018-08-18T00:41:40.503Z,74.39
2018-08-18T00:44:10.513Z,74.35
2018-08-18T00:46:39.040Z,75.12
2018-08-18T00:49:08.092Z,75.90
2018-08-18T00:51:41.919Z,76.34
2018-08-18T00:54:10.490Z,76.31
2018-08-18T00:56:41.039Z,76.20
2018-08-18T00:59:10.009Z,77.02
2018-08-18T01:01:38.533Z,75.92
2018-08-18T01:04:08.676Z,75.79
2018-08-18T01:06:40.825Z,76.21
2018-08-18T01:09:11.021Z,77.19
2018-08-18T01:11:39.726Z,76.72
2018-08-18T01:14:15.379Z,77.66
2018-08-18T01:16:52.455Z,77.61
2018-08-18T01:19:22.259Z,77.50
2018-08-18T01:21:56.106Z,77.40
2018-08-18T01:24:25.135Z,77.91
2018-08-18T01:26:53.643Z,79.43
2018-08-18T01:29:22.308Z,79.22
2018-08-18T01:31:51.063Z,78.15
2018-08-18T01:34:19.491Z,78.54
2018-08-18T01:36:47.951Z,78.35
2018-08-18T01:39:16.595Z,78.66
2018-08-18T01:41:45.166Z,78.75
2018-08-18T01:44:16.506Z,78.75
2018-08-18T01:46:46.872Z,79.19
2018-08-18T01:49:35.039Z,79.03
2018-08-18T01:52:06.151Z,79.68
2018-08-18T01:54:34.687Z,79.58
2018-08-18T01:57:10.059Z,79.99
2018-08-18T01:59:41.110Z,79.82
2018-08-18T02:02:13.982Z,80.29
2018-08-18T02:04:43.339Z,80.50
2018-08-18T02:07:17.426Z,80.50
2018-08-18T02:09:46.279Z,80.26
2018-08-18T02:12:14.741Z,81.04
2018-08-18T02:14:43.632Z,79.51
2018-08-18T02:17:24.687Z,81.55
2018-08-18T02:19:53.754Z,81.08
2018-08-18T02:22:23.042Z,81.20
2018-08-18T02:24:51.595Z,81.08
2018-08-18T02:27:20.115Z,81.50
2018-08-18T02:30:00.155Z,81.63
2018-08-18T02:32:31.083Z,81.29
2018-08-18T02:34:59.759Z,81.21
2018-08-18T02:37:29.187Z,81.46
2018-08-18T02:39:57.792Z,81.54
2018-08-18T02:42:26.363Z,83.49
2018-08-18T02:44:54.964Z,84.08
2018-08-18T02:47:23.857Z,82.99
2018-08-18T02:49:53.592Z,81.65
2018-08-18T02:52:28.165Z,82.23
2018-08-18T02:55:02.532Z,82.78
2018-08-18T02:57:35.244Z,82.36
2018-08-18T03:00:08.060Z,83.06
2018-08-18T03:02:36.615Z,83.43
2018-08-18T03:05:05.523Z,83.63
2018-08-18T03:07:51.548Z,84.08
2018-08-18T03:10:23.819Z,83.31
2018-08-18T03:12:55.455Z,83.22
2018-08-18T03:16:05.343Z,84.11
2018-08-18T03:18:53.970Z,84.04
2018-08-18T03:21:30.613Z,84.25
2018-08-18T03:24:19.721Z,84.57
2018-08-18T03:26:50.275Z,85.09
2018-08-18T03:29:19.796Z,83.85
2018-08-18T03:31:48.911Z,83.85
2018-08-18T03:34:17.892Z,84.94
2018-08-18T03:36:49.047Z,84.61
2018-08-18T03:39:23.795Z,83.97
2018-08-18T03:41:54.131Z,84.21
2018-08-18T03:44:22.814Z,86.48
2018-08-18T03:46:51.581Z,85.56
2018-08-18T03:49:20.548Z,85.56
2018-08-18T03:51:55.943Z,86.70
2018-08-18T03:54:24.595Z,87.46
2018-08-18T03:56:53.135Z,87.42
2018-08-18T03:59:21.747Z,86.10
2018-08-18T04:02:01.368Z,85.83
2018-08-18T04:04:35.971Z,86.32
2018-08-18T04:07:06.239Z,85.99
2018-08-18T04:09:35.800Z,85.74
2018-08-18T04:12:05.608Z,84.50
2018-08-18T04:14:44.129Z,84.29
2018-08-18T04:17:24.970Z,84.57
2018-08-18T04:19:53.524Z,85.47
2018-08-18T04:22:23.352Z,86.21
2018-08-18T04:24:51.828Z,85.78
2018-08-18T04:27:38.994Z,85.66
2018-08-18T04:30:10.446Z,85.70
2018-08-18T04:32:50.118Z,83.81
2018-08-18T04:35:20.853Z,83.86
2018-08-18T04:37:49.851Z,84.63
2018-08-18T04:40:18.459Z,85.06
2018-08-18T04:42:47.061Z,84.94
2018-08-18T04:45:17.175Z,85.33
2018-08-18T04:47:45.656Z,84.31
2018-08-18T04:50:14.615Z,84.47
2018-08-18T04:52:43.275Z,83.97
2018-08-18T04:55:12.919Z,84.80
2018-08-18T04:57:41.454Z,84.22
2018-08-18T05:00:11.769Z,84.31
2018-08-18T05:02:45.623Z,84.31
2018-08-18T05:05:14.188Z,83.20
2018-08-18T05:07:47.287Z,81.40
2018-08-18T05:10:17.255Z,79.04
2018-08-18T05:12:45.999Z,76.68
2018-08-18T05:15:15.119Z,74.80
2018-08-18T05:17:43.799Z,73.32
2018-08-18T05:20:16.663Z,72.40
2018-08-18T05:22:45.235Z,71.51
2018-08-18T05:25:13.763Z,71.38
2018-08-18T05:27:42.599Z,69.49
2018-08-18T05:30:11.190Z,68.69
2018-08-18T05:32:39.668Z,68.92
2018-08-18T05:35:09.238Z,69.72
2018-08-18T05:37:37.768Z,71.06
2018-08-18T05:40:06.682Z,71.22
2018-08-18T05:42:35.166Z,71.81
2018-08-18T05:45:18.927Z,71.59
2018-08-18T05:47:47.659Z,71.10
2018-08-18T05:50:16.339Z,71.09
2018-08-18T05:52:44.775Z,71.71
2018-08-18T05:55:13.348Z,71.64
2018-08-18T05:57:41.787Z,71.98
2018-08-18T06:00:15.587Z,71.26
2018-08-18T06:02:48.178Z,72.35
2018-08-18T06:05:16.747Z,71.86
2018-08-18T06:07:45.207Z,71.25
2018-08-18T06:10:13.700Z,71.40
2018-08-18T06:12:42.432Z,71.72
2018-08-18T06:15:10.991Z,71.50
2018-08-18T06:17:40.738Z,71.17
2018-08-18T06:20:09.439Z,70.92
2018-08-18T06:22:38.426Z,70.09
2018-08-18T06:25:07.039Z,70.47
2018-08-18T06:27:35.670Z,69.90
2018-08-18T06:30:05.110Z,70.03
2018-08-18T06:32:33.581Z,69.10
2018-08-18T06:35:02.355Z,68.87
2018-08-18T06:37:30.933Z,68.44
2018-08-18T06:40:00.135Z,67.64
2018-08-18T06:42:45.024Z,68.04
2018-08-18T06:45:15.934Z,66.41
2018-08-18T06:47:44.995Z,65.78
2018-08-18T06:50:15.113Z,64.60
2018-08-18T06:52:44.471Z,64.18
2018-08-18T06:55:18.406Z,63.95
2018-08-18T06:57:52.487Z,64.61
2018-08-18T07:00:25.655Z,63.53
2018-08-18T07:02:54.272Z,63.59
2018-08-18T07:05:22.806Z,62.92
2018-08-18T07:07:51.255Z,62.80
2018-08-18T07:10:32.297Z,63.03
2018-08-18T07:13:03.710Z,62.49
2018-08-18T07:15:33.848Z,62.35
2018-08-18T07:18:02.462Z,61.77
2018-08-18T07:20:31.103Z,61.96
2018-08-18T07:22:59.804Z,61.97
2018-08-18T07:25:28.284Z,60.91
2018-08-18T07:28:02.018Z,61.77
2018-08-18T07:30:31.151Z,62.24
2018-08-18T07:33:00.040Z,61.77
2018-08-18T07:35:28.990Z,60.05
2018-08-18T07:37:57.648Z,59.75
2018-08-18T07:40:33.397Z,59.93
2018-08-18T07:43:03.647Z,59.44
2018-08-18T07:45:33.207Z,57.95
2018-08-18T07:48:02.138Z,58.45
2018-08-18T07:50:30.665Z,57.29
2018-08-18T07:52:59.440Z,56.69
2018-08-18T07:55:27.943Z,57.40
2018-08-18T07:58:03.257Z,57.15
2018-08-18T08:00:33.336Z,56.04
2018-08-18T08:03:02.278Z,56.73
2018-08-18T08:05:31.309Z,56.45
2018-08-18T08:07:59.955Z,54.42
2018-08-18T08:10:28.571Z,55.08
2018-08-18T08:12:57.430Z,53.85
2018-08-18T08:15:25.847Z,53.62
2018-08-18T08:17:54.439Z,53.92
2018-08-18T08:20:23.047Z,53.47
2018-08-18T08:22:52.569Z,54.94
2018-08-18T08:25:21.183Z,52.84
2018-08-18T08:27:51.099Z,52.37
2018-08-18T08:30:21.416Z,50.91
2018-08-18T08:32:50.127Z,50.83
2018-08-18T08:35:18.788Z,51.27
2018-08-18T08:37:48.281Z,51.62
2018-08-18T08:40:18.067Z,50.06
2018-08-18T08:42:46.609Z,49.88
2018-08-18T08:45:16.559Z,50.68
2018-08-18T08:47:46.114Z,50.92
2018-08-18T08:50:16.542Z,49.77
2018-08-18T08:52:47.935Z,49.28
2018-08-18T08:55:17.995Z,47.83
2018-08-18T08:57:46.486Z,49.08
2018-08-18T09:00:14.998Z,49.53
2018-08-18T09:02:43.858Z,49.85
2018-08-18T09:05:12.403Z,47.58
2018-08-18T09:07:41.302Z,46.65
2018-08-18T09:10:11.413Z,46.98
2018-08-18T09:12:40.027Z,46.79
2018-08-18T09:15:10.172Z,47.19
2018-08-18T09:17:38.671Z,47.19
2018-08-18T09:20:09.439Z,44.71
2018-08-18T09:23:09.156Z,45.57
2018-08-18T09:25:37.579Z,46.59
2018-08-18T09:28:06.134Z,45.91
2018-08-18T09:30:34.875Z,44.40
2018-08-18T09:33:06.811Z,43.25
2018-08-18T09:36:08.262Z,45.86
2018-08-18T09:38:36.743Z,44.68
2018-08-18T09:41:05.268Z,44.70
2018-08-18T09:43:33.755Z,44.80
2018-08-18T09:46:02.338Z,44.78
2018-08-18T09:48:31.059Z,45.75
2018-08-18T09:50:59.679Z,45.93
2018-08-18T09:53:28.256Z,45.76
2018-08-18T09:55:56.719Z,46.54
2018-08-18T09:58:25.395Z,46.22
2018-08-18T10:00:54.051Z,44.91
2018-08-18T10:03:22.503Z,44.89
2018-08-18T10:05:51.135Z,43.91
2018-08-18T10:08:19.604Z,44.10
2018-08-18T10:10:48.114Z,42.33
2018-08-18T10:13:16.643Z,41.22
2018-08-18T10:15:45.096Z,42.13
2018-08-18T10:18:13.551Z,42.50
2018-08-18T10:20:47.532Z,42.35
2018-08-18T10:23:15.979Z,42.47
2018-08-18T10:25:45.131Z,42.54
2018-08-18T10:28:13.944Z,42.35
2018-08-18T10:30:42.375Z,42.91
2018-08-18T10:33:10.853Z,42.58
2018-08-18T10:35:39.435Z,41.49
2018-08-18T10:38:07.915Z,41.51
2018-08-18T10:40:36.379Z,41.08
2018-08-18T10:43:04.879Z,40.19
2018-08-18T10:45:33.292Z,40.58
2018-08-18T10:48:01.755Z,40.36
2018-08-18T10:50:47.291Z,39.21
2018-08-18T10:53:15.722Z,39.52
2018-08-18T10:55:44.239Z,39.30
2018-08-18T10:59:20.908Z,38.37
2018-08-18T11:02:05.743Z,38.32
2018-08-18T11:04:35.243Z,38.80
2018-08-18T11:07:03.939Z,39.44
2018-08-18T11:09:33.075Z,39.09
2018-08-18T11:12:02.064Z,39.05
2018-08-18T11:14:30.535Z,38.42
2018-08-18T11:16:58.987Z,38.03
2018-08-18T11:19:27.567Z,38.08
2018-08-18T11:22:07.327Z,38.70
2018-08-18T11:24:35.923Z,39.08
2018-08-18T11:27:04.484Z,39.45
2018-08-18T11:29:32.938Z,38.33
2018-08-18T11:32:01.387Z,38.12
2018-08-18T11:34:29.840Z,38.20
2018-08-18T11:37:03.652Z,38.77
2018-08-18T11:39:32.483Z,38.79
2018-08-18T11:42:01.060Z,37.96
2018-08-18T11:44:29.834Z,37.31
2018-08-18T11:46:58.322Z,37.44
2018-08-18T11:49:26.858Z,37.58
2018-08-18T11:51:56.018Z,37.39
2018-08-18T11:54:24.680Z,36.44
2018-08-18T11:56:53.147Z,36.03
2018-08-18T11:59:22.035Z,34.72
2018-08-18T12:01:52.599Z,35.58
2018-08-18T12:04:22.358Z,35.42
2018-08-18T12:06:55.943Z,35.88
2018-08-18T12:09:24.746Z,35.58
2018-08-18T12:11:53.276Z,36.40
2018-08-18T12:14:22.051Z,36.54
2018-08-18T12:16:50.673Z,37.15
2018-08-18T12:19:19.135Z,37.53
2018-08-18T12:21:47.967Z,35.91
2018-08-18T12:24:20.155Z,36.42
2018-08-18T12:27:01.037Z,37.13
2018-08-18T12:29:30.824Z,36.75
2018-08-18T12:31:59.371Z,37.06
2018-08-18T12:34:27.823Z,36.41
2018-08-18T12:36:56.512Z,37.24
2018-08-18T12:39:24.860Z,36.20
2018-08-18T12:41:53.407Z,36.78
2018-08-18T12:44:26.035Z,36.76
2018-08-18T12:46:54.544Z,35.25
2018-08-18T12:49:22.997Z,35.34
2018-08-18T12:51:51.493Z,35.21
2018-08-18T12:54:19.947Z,35.81
2018-08-18T12:56:48.428Z,35.84
2018-08-18T12:59:16.940Z,34.60
2018-08-18T13:01:49.240Z,35.42
2018-08-18T13:04:19.484Z,35.01
2018-08-18T13:06:50.127Z,34.67
2018-08-18T13:09:20.287Z,35.71
2018-08-18T13:11:49.939Z,35.82
2018-08-18T13:14:21.934Z,35.46
2018-08-18T13:16:50.415Z,35.54
2018-08-18T13:19:20.892Z,35.91
2018-08-18T13:21:49.403Z,35.79
2018-08-18T13:24:18.214Z,35.49
2018-08-18T13:26:46.873Z,35.20
2018-08-18T13:29:15.513Z,35.70
2018-08-18T13:31:44.656Z,34.36
2018-08-18T13:34:15.378Z,34.66
2018-08-18T13:36:44.870Z,35.16
2018-08-18T13:39:17.984Z,35.18
2018-08-18T13:41:47.410Z,34.75
2018-08-18T13:44:23.502Z,34.81
2018-08-18T13:46:52.123Z,33.91
2018-08-18T13:49:22.993Z,33.91
2018-08-18T13:51:51.695Z,34.19
2018-08-18T13:54:20.272Z,33.42
2018-08-18T13:56:49.112Z,34.14
2018-08-18T13:59:52.747Z,34.02
2018-08-18T14:02:21.187Z,34.58
2018-08-18T14:04:49.774Z,34.75
2018-08-18T14:07:18.235Z,32.38
2018-08-18T14:09:56.870Z,33.37
2018-08-18T14:12:25.319Z,32.51
2018-08-18T14:14:53.927Z,31.94
2018-08-18T14:17:23.060Z,32.33
2018-08-18T14:19:52.204Z,34.43
2018-08-18T14:22:22.263Z,32.86
2018-08-18T14:24:50.856Z,33.86
2018-08-18T14:27:21.694Z,33.65
2018-08-18T14:29:50.355Z,34.30
2018-08-18T14:32:24.151Z,32.50
2018-08-18T14:35:12.247Z,32.41
2018-08-18T14:37:42.210Z,32.66
2018-08-18T14:40:17.543Z,31.81
2018-08-18T14:42:47.355Z,31.34
2018-08-18T14:45:16.987Z,31.28
2018-08-18T14:47:46.231Z,31.76
2018-08-18T14:50:32.527Z,30.62
2018-08-18T14:53:05.000Z,32.06
2018-08-18T14:55:33.563Z,31.42
2018-08-18T14:58:03.043Z,31.46
2018-08-18T15:00:32.028Z,31.60
2018-08-18T15:03:00.858Z,31.96
2018-08-18T15:05:29.560Z,31.89
2018-08-18T15:07:59.029Z,30.58
2018-08-18T15:10:36.504Z,30.11
2018-08-18T15:13:05.759Z,30.91
2018-08-18T15:15:34.980Z,29.58
2018-08-18T15:18:05.751Z,29.80
2018-08-18T15:20:35.443Z,29.48
2018-08-18T15:23:04.885Z,28.61
2018-08-18T15:25:34.395Z,29.59
2018-08-18T15:28:05.119Z,29.32
2018-08-18T15:30:34.781Z,29.41
2018-08-18T15:33:03.219Z,28.86
2018-08-18T15:35:32.025Z,29.50
2018-08-18T15:38:00.516Z,28.38
2018-08-18T15:40:29.858Z,28.52
2018-08-18T15:42:59.799Z,28.71
2018-08-18T15:45:29.050Z,29.13
2018-08-18T15:47:57.783Z,30.35
2018-08-18T15:50:27.747Z,29.14
2018-08-18T15:52:56.296Z,28.46
2018-08-18T15:55:24.801Z,28.42
2018-08-18T15:57:53.323Z,29.51
2018-08-18T16:00:30.675Z,29.98
2018-08-18T16:02:59.838Z,28.68
2018-08-18T16:05:29.424Z,29.20
2018-08-18T16:07:57.895Z,28.91
2018-08-18T16:10:26.605Z,29.37
2018-08-18T16:12:55.096Z,29.63
2018-08-18T16:15:24.503Z,30.74
2018-08-18T16:17:53.763Z,30.39
2018-08-18T16:20:23.355Z,29.95
2018-08-18T16:22:54.282Z,30.02
2018-08-18T16:25:31.592Z,29.19
2018-08-18T16:28:00.067Z,30.53
2018-08-18T16:30:28.547Z,29.95
2018-08-18T16:33:09.162Z,30.21
2018-08-18T16:35:39.016Z,31.01
2018-08-18T16:38:07.809Z,30.57
2018-08-18T16:40:37.047Z,30.65
2018-08-18T16:43:07.083Z,28.49
2018-08-18T16:45:35.578Z,27.14
2018-08-18T16:48:05.175Z,27.41
2018-08-18T16:50:34.579Z,27.54
2018-08-18T16:53:05.728Z,28.84
2018-08-18T16:55:35.487Z,28.72
2018-08-18T16:58:04.023Z,28.34
2018-08-18T17:00:33.152Z,28.11
2018-08-18T17:03:02.081Z,28.35
2018-08-18T17:05:30.662Z,28.52
2018-08-18T17:07:59.292Z,28.49
2018-08-18T17:10:27.803Z,28.16
2018-08-18T17:12:59.487Z,29.35
2018-08-18T17:15:28.003Z,28.92
2018-08-18T17:17:56.393Z,28.61
2018-08-18T17:20:24.859Z,28.92
2018-08-18T17:22:53.355Z,27.92
2018-08-18T17:25:22.851Z,28.80
2018-08-18T17:27:51.267Z,27.97
2018-08-18T17:30:19.879Z,28.84
2018-08-18T17:32:48.257Z,29.62
2018-08-18T17:35:16.811Z,29.53
2018-08-18T17:37:45.253Z,29.22
2018-08-18T17:40:13.667Z,30.12
2018-08-18T17:42:42.298Z,30.92
2018-08-18T17:45:10.861Z,30.54
2018-08-18T17:47:43.690Z,30.57
2018-08-18T17:50:12.144Z,30.40
2018-08-18T17:52:40.907Z,31.02
2018-08-18T17:55:15.735Z,31.07
2018-08-18T17:57:44.220Z,31.69
2018-08-18T18:00:18.245Z,31.48
2018-08-18T18:02:53.281Z,31.46
2018-08-18T18:05:24.282Z,31.12
2018-08-18T18:07:54.628Z,32.93
2018-08-18T18:10:25.036Z,32.75
2018-08-18T18:12:53.455Z,32.89
2018-08-18T18:15:30.840Z,32.95
2018-08-18T18:17:59.381Z,32.91
2018-08-18T18:20:29.335Z,33.82
2018-08-18T18:22:57.875Z,33.51
2018-08-18T18:25:26.383Z,33.78
2018-08-18T18:27:55.088Z,34.76
2018-08-18T18:30:26.447Z,34.36
2018-08-18T18:32:55.189Z,34.60
2018-08-18T18:35:24.595Z,34.12
2018-08-18T18:37:54.478Z,34.92
2018-08-18T18:40:22.947Z,36.21
2018-08-18T18:42:51.351Z,36.77
2018-08-18T18:45:22.066Z,36.96
2018-08-18T18:47:50.491Z,36.37
2018-08-18T18:50:19.644Z,36.64
2018-08-18T18:52:48.454Z,37.72
2018-08-18T18:55:17.652Z,37.98
2018-08-18T18:58:06.763Z,39.48
2018-08-18T19:00:37.600Z,39.72
2018-08-18T19:03:07.915Z,39.89
2018-08-18T19:05:36.494Z,41.20
2018-08-18T19:08:11.319Z,41.99
2018-08-18T19:10:39.924Z,42.63
2018-08-18T19:13:09.183Z,42.91
2018-08-18T19:15:37.826Z,43.34
2018-08-18T19:18:07.235Z,43.36
2018-08-18T19:20:35.747Z,44.07
2018-08-18T19:23:10.635Z,44.61
2018-08-18T19:25:40.224Z,44.97
2018-08-18T19:28:16.958Z,45.18
2018-08-18T19:30:45.478Z,46.32
2018-08-18T19:33:15.023Z,46.19
2018-08-18T19:35:44.388Z,46.34
2018-08-18T19:38:13.552Z,47.05
2018-08-18T19:40:43.307Z,47.41
2018-08-18T19:43:14.459Z,47.78
2018-08-18T19:45:43.359Z,48.45
2018-08-18T19:48:12.798Z,49.26
2018-08-18T19:50:49.434Z,48.42
2018-08-18T19:53:18.748Z,48.74
2018-08-18T19:55:47.208Z,49.38
2018-08-18T19:58:15.684Z,50.07
2018-08-18T20:00:44.197Z,49.24
2018-08-18T20:03:13.836Z,49.81
2018-08-18T20:05:42.583Z,50.79
2018-08-18T20:08:11.336Z,50.51
2018-08-18T20:10:46.247Z,50.60
2018-08-18T20:13:15.619Z,50.38
2018-08-18T20:15:46.355Z,49.34
2018-08-18T20:18:15.094Z,50.97
2018-08-18T20:20:43.531Z,51.21
2018-08-18T20:23:13.873Z,52.10
2018-08-18T20:25:42.359Z,52.52
2018-08-18T20:28:10.787Z,52.02
2018-08-18T20:30:39.254Z,52.52
2018-08-18T20:33:07.711Z,52.05
2018-08-18T20:35:36.136Z,52.65
2018-08-18T20:38:04.604Z,51.69
2018-08-18T20:40:33.114Z,52.33
2018-08-18T20:43:01.555Z,52.20
2018-08-18T20:45:37.017Z,52.64
2018-08-18T20:48:07.906Z,53.04
2018-08-18T20:50:36.879Z,53.92
2018-08-18T20:53:10.715Z,53.67
2018-08-18T20:55:39.247Z,52.73
2018-08-18T20:58:07.658Z,54.84
2018-08-18T21:00:36.132Z,54.56
2018-08-18T21:03:04.771Z,54.85
2018-08-18T21:05:33.206Z,54.63
2018-08-18T21:08:09.907Z,55.47
2018-08-18T21:10:38.467Z,54.94
2018-08-18T21:13:07.439Z,56.14
2018-08-18T21:15:36.295Z,55.43
2018-08-18T21:18:21.243Z,55.52
2018-08-18T21:20:50.056Z,56.54
2018-08-18T21:23:19.499Z,56.70
2018-08-18T21:25:51.035Z,56.38
2018-08-18T21:28:20.696Z,56.59
2018-08-18T21:30:49.615Z,56.24
2018-08-18T21:33:18.181Z,56.88
2018-08-18T21:35:46.687Z,56.17
2018-08-18T21:38:15.312Z,57.27
2018-08-18T21:40:43.884Z,56.88
2018-08-18T21:43:23.863Z,57.16
2018-08-18T21:45:54.156Z,56.54
2018-08-18T21:48:32.772Z,57.10
2018-08-18T21:51:01.774Z,57.91
2018-08-18T21:53:30.295Z,58.43
2018-08-18T21:55:59.847Z,57.54
2018-08-18T21:58:28.482Z,57.89
2018-08-18T22:01:01.128Z,57.79
2018-08-18T22:03:29.795Z,59.41
2018-08-18T22:05:58.517Z,58.81
2018-08-18T22:08:26.980Z,58.62
2018-08-18T22:10:56.835Z,59.96
2018-08-18T22:13:25.967Z,59.94
2018-08-18T22:15:54.443Z,59.35
2018-08-18T22:18:23.079Z,59.06
2018-08-18T22:20:51.595Z,58.54
2018-08-18T22:23:20.113Z,59.26
2018-08-18T22:25:48.625Z,59.45
2018-08-18T22:28:17.231Z,60.12
2018-08-18T22:30:45.796Z,60.12
2018-08-18T22:33:14.342Z,60.66
2018-08-18T22:35:46.879Z,60.97
2018-08-18T22:38:15.539Z,61.55
2018-08-18T22:40:44.062Z,61.08
2018-08-18T22:43:12.704Z,59.05
2018-08-18T22:45:41.220Z,59.95
2018-08-18T22:48:09.644Z,60.67
2018-08-18T22:50:38.114Z,60.99
2018-08-18T22:53:06.697Z,60.61
2018-08-18T22:55:35.237Z,60.23
2018-08-18T22:58:03.711Z,59.75
2018-08-18T23:00:37.415Z,60.65
2018-08-18T23:03:05.995Z,61.59
2018-08-18T23:05:34.434Z,61.96
2018-08-18T23:08:02.986Z,60.29
2018-08-18T23:10:32.630Z,60.70
2018-08-18T23:13:02.308Z,61.06
2018-08-18T23:15:31.131Z,62.19
2018-08-18T23:17:59.683Z,62.47
2018-08-18T23:20:28.379Z,62.48
2018-08-18T23:23:01.409Z,63.05
2018-08-18T23:25:32.282Z,62.97
2018-08-18T23:28:00.839Z,64.09
2018-08-18T23:30:34.490Z,65.06
2018-08-18T23:33:04.363Z,65.11
2018-08-18T23:35:32.871Z,65.76
2018-08-18T23:38:01.651Z,65.72
2018-08-18T23:40:30.320Z,65.54
2018-08-18T23:42:58.890Z,65.83
2018-08-18T23:45:40.683Z,65.56
2018-08-18T23:48:11.327Z,66.30
2018-08-18T23:50:41.250Z,66.55
2018-08-18T23:53:10.887Z,66.80
2018-08-18T23:55:46.263Z,67.35
2018-08-18T23:58:14.839Z,68.40
